Dades meteomassalio
Diari Summary for Febrer 27, 2018 Units:  English    Metric   Both
« Previous Day
Next Day »
Diari Semanal Mensual Anual Personalitzat
  Maxima: Minima: Mijana:
Temperatura: TemperatureC °F -3.3 °F 0.7 °F
Rosada: DewpointC °F -10.4 °F -7.4 °F
Humitat: Humidity % 42 % 56 %
Velocitat del vent: WindSpeedKMH mph 0.0 mph 7.2 mph
Racha vent: WindSpeedGustKMH mph - -
Vent:- - West
Pressio: PressurehPa in 1009.7 in -
Pluja: 0.0 in    
Historical Graphs
 
 
Tabular Data for Febrer 27, 2018
Time Temperature Dew Point Pressure Wind Wind Speed Wind Gust Humidity Rainfall Rate (Hourly) solar Conditions
TemperatureC °F DewpointC °F PressurehPa in Calm     Humidity % HourlyPrecipMM in SolarRadiationWatts/m^2 W/m2 Conditions
00:01 2.8 °F -8.3 °F 1010.7 in WNW 18.5 mph 18.5 mph 44 % 0.0 in 0.0 W/m2 CLR
00:06 2.8 °F -8.3 °F 1010.4 in NW 13.0 mph 13.0 mph 44 % 0.0 in 0.0 W/m2 CLR
00:11 2.8 °F -8.3 °F 1010.7 in WNW 14.8 mph 14.8 mph 44 % 0.0 in 0.0 W/m2 CLR
00:16 2.2 °F -8.8 °F 1010.7 in WNW 9.3 mph 9.3 mph 44 % 0.0 in 0.0 W/m2 CLR
00:21 2.2 °F -8.8 °F 1010.7 in WNW 9.3 mph 9.3 mph 44 % 0.0 in 0.0 W/m2 CLR
00:26 2.2 °F -8.5 °F 1010.7 in NW 12.9 mph 12.9 mph 45 % 0.0 in 0.0 W/m2 CLR
00:31 2.2 °F -8.5 °F 1010.7 in WNW 16.7 mph 16.7 mph 45 % 0.0 in 0.0 W/m2 CLR
00:36 2.2 °F -8.5 °F 1010.7 in NW 20.4 mph 20.4 mph 45 % 0.0 in 0.0 W/m2 CLR
00:41 2.2 °F -8.5 °F 1010.7 in NW 18.5 mph 18.5 mph 45 % 0.0 in 0.0 W/m2 CLR
00:46 2.2 °F -8.5 °F 1011.1 in NW 18.5 mph 18.5 mph 45 % 0.0 in 0.0 W/m2 CLR
00:51 2.2 °F -8.5 °F 1011.1 in WNW 20.9 mph 20.9 mph 45 % 0.0 in 0.0 W/m2 CLR
00:56 2.2 °F -8.5 °F 1011.1 in NW 24.1 mph 24.1 mph 45 % 0.0 in 0.0 W/m2 CLR
01:01 2.2 °F -8.5 °F 1010.7 in NW 20.4 mph 20.4 mph 45 % 0.0 in 0.0 W/m2 CLR
01:06 2.2 °F -8.5 °F 1011.1 in WNW 27.8 mph 27.8 mph 45 % 0.0 in 0.0 W/m2 CLR
01:11 2.2 °F -8.2 °F 1011.1 in NW 20.9 mph 20.9 mph 46 % 0.0 in 0.0 W/m2 CLR
01:16 2.2 °F -8.2 °F 1011.1 in NW 16.7 mph 16.7 mph 46 % 0.0 in 0.0 W/m2 CLR
01:21 2.2 °F -8.2 °F 1011.1 in WNW 14.8 mph 14.8 mph 46 % 0.0 in 0.0 W/m2 CLR
01:26 1.7 °F -8.7 °F 1011.1 in WNW 18.5 mph 18.5 mph 46 % 0.0 in 0.0 W/m2 CLR
01:31 1.7 °F -8.7 °F 1011.1 in WNW 18.5 mph 18.5 mph 46 % 0.0 in 0.0 W/m2 CLR
01:36 1.7 °F -8.7 °F 1011.4 in NNW 17.7 mph 17.7 mph 46 % 0.0 in 0.0 W/m2 CLR
01:41 1.7 °F -8.7 °F 1011.4 in NW 20.4 mph 20.4 mph 46 % 0.0 in 0.0 W/m2 CLR
01:46 1.7 °F -8.7 °F 1011.4 in NW 20.4 mph 20.4 mph 46 % 0.0 in 0.0 W/m2 CLR
01:51 1.7 °F -8.7 °F 1011.4 in WNW 20.4 mph 20.4 mph 46 % 0.0 in 0.0 W/m2 CLR
01:56 1.7 °F -8.7 °F 1011.4 in WNW 18.5 mph 18.5 mph 46 % 0.0 in 0.0 W/m2 CLR
02:01 1.1 °F -9.2 °F 1011.4 in WSW 4.8 mph 4.8 mph 46 % 0.0 in 0.0 W/m2 CLR
02:06 1.1 °F -8.9 °F 1011.4 in West 3.2 mph 3.2 mph 47 % 0.0 in 0.0 W/m2 CLR
02:11 1.1 °F -8.9 °F 1011.4 in WSW 14.8 mph 14.8 mph 47 % 0.0 in 0.0 W/m2 CLR
02:16 1.1 °F -8.9 °F 1011.4 in SW 7.4 mph 7.4 mph 47 % 0.0 in 0.0 W/m2 CLR
02:21 1.1 °F -8.7 °F 1011.7 in WSW 8.0 mph 8.0 mph 48 % 0.0 in 0.0 W/m2 CLR
02:26 1.7 °F -8.4 °F 1011.7 in West 11.1 mph 11.1 mph 47 % 0.0 in 0.0 W/m2 CLR
02:31 1.7 °F -8.2 °F 1011.4 in West 11.3 mph 11.3 mph 48 % 0.0 in 0.0 W/m2 CLR
02:36 1.7 °F -8.2 °F 1011.4 in West 20.9 mph 20.9 mph 48 % 0.0 in 0.0 W/m2 CLR
02:41 1.7 °F -8.4 °F 1011.4 in WNW 16.7 mph 16.7 mph 47 % 0.0 in 0.0 W/m2 CLR
02:46 1.1 °F -8.9 °F 1011.4 in WNW 25.9 mph 25.9 mph 47 % 0.0 in 0.0 W/m2 CLR
02:51 1.1 °F -8.9 °F 1011.4 in NW 16.7 mph 16.7 mph 47 % 0.0 in 0.0 W/m2 CLR
02:56 0.6 °F -9.5 °F 1011.4 in NW 20.4 mph 20.4 mph 47 % 0.0 in 0.0 W/m2 CLR
03:01 0.6 °F -9.5 °F 1011.4 in NW 17.7 mph 17.7 mph 47 % 0.0 in 0.0 W/m2 CLR
03:11 0.6 °F -9.2 °F 1011.4 in WSW 20.9 mph 20.9 mph 48 % 0.0 in 0.0 W/m2 CLR
03:16 1.1 °F -8.7 °F 1011.1 in WSW 18.5 mph 18.5 mph 48 % 0.0 in 0.0 W/m2 CLR
03:22 1.1 °F -8.7 °F 1011.4 in West 18.5 mph 18.5 mph 48 % 0.0 in 0.0 W/m2 CLR
03:27 0.6 °F -9.2 °F 1011.4 in NW 14.8 mph 14.8 mph 48 % 0.0 in 0.0 W/m2 CLR
03:32 0.0 °F -9.4 °F 1011.4 in WNW 14.8 mph 14.8 mph 49 % 0.0 in 0.0 W/m2 CLR
03:37 0.0 °F -9.4 °F 1011.4 in NW 16.7 mph 16.7 mph 49 % 0.0 in 0.0 W/m2 CLR
03:42 0.0 °F -9.4 °F 1011.1 in WNW 22.2 mph 22.2 mph 49 % 0.0 in 0.0 W/m2 CLR
03:47 0.0 °F -9.4 °F 1011.1 in WNW 18.5 mph 18.5 mph 49 % 0.0 in 0.0 W/m2 CLR
03:52 0.6 °F -8.9 °F 1011.1 in West 17.7 mph 17.7 mph 49 % 0.0 in 0.0 W/m2 CLR
03:57 0.6 °F -8.7 °F 1011.1 in West 8.0 mph 8.0 mph 50 % 0.0 in 0.0 W/m2 CLR
04:02 0.6 °F -8.7 °F 1011.1 in WNW 18.5 mph 18.5 mph 50 % 0.0 in 0.0 W/m2 CLR
04:07 0.0 °F -9.2 °F 1011.4 in NW 14.5 mph 14.5 mph 50 % 0.0 in 0.0 W/m2 CLR
04:12 0.0 °F -8.9 °F 1011.1 in WNW 7.4 mph 7.4 mph 51 % 0.0 in 0.0 W/m2 CLR
04:17 -0.6 °F -9.4 °F 1011.1 in NNW 14.8 mph 14.8 mph 51 % 0.0 in 0.0 W/m2 CLR
04:22 -0.6 °F -9.7 °F 1011.1 in WNW 18.5 mph 18.5 mph 50 % 0.0 in 0.0 W/m2 CLR
04:27 -0.6 °F -9.7 °F 1011.1 in WNW 17.7 mph 17.7 mph 50 % 0.0 in 0.0 W/m2 CLR
04:32 -0.6 °F -9.4 °F 1011.1 in WNW 13.0 mph 13.0 mph 51 % 0.0 in 0.0 W/m2 CLR
04:37 -0.6 °F -9.2 °F 1011.1 in West 16.7 mph 16.7 mph 52 % 0.0 in 0.0 W/m2 CLR
04:42 -0.6 °F -9.2 °F 1011.1 in WNW 7.4 mph 7.4 mph 52 % 0.0 in 0.0 W/m2 CLR
04:47 -0.6 °F -9.0 °F 1011.1 in WNW 6.4 mph 6.4 mph 53 % 0.0 in 0.0 W/m2 CLR
04:52 -1.1 °F -9.5 °F 1011.1 in WSW 5.6 mph 5.6 mph 53 % 0.0 in 0.0 W/m2 CLR
04:57 -1.7 °F -9.8 °F 1011.1 in WSW 5.6 mph 5.6 mph 54 % 0.0 in 0.0 W/m2 CLR
05:02 -2.2 °F -10.3 °F 1011.1 in WNW 9.3 mph 9.3 mph 54 % 0.0 in 0.0 W/m2 CLR
05:07 -2.2 °F -10.3 °F 1011.1 in WNW 13.0 mph 13.0 mph 54 % 0.0 in 0.0 W/m2 CLR
05:12 -2.2 °F -10.3 °F 1011.1 in WNW 12.9 mph 12.9 mph 54 % 0.0 in 0.0 W/m2 CLR
05:17 -1.7 °F -9.6 °F 1011.1 in WNW 5.6 mph 5.6 mph 55 % 0.0 in 0.0 W/m2 CLR
05:22 -2.2 °F -10.1 °F 1011.1 in Calm     55 % 0.0 in 0.0 W/m2 CLR
05:27 -2.8 °F -10.3 °F 1011.1 in WNW 9.7 mph 9.7 mph 56 % 0.0 in 0.0 W/m2 CLR
05:32 -2.2 °F -9.6 °F 1011.1 in West 14.8 mph 14.8 mph 57 % 0.0 in 0.0 W/m2 CLR
05:37 -2.2 °F -9.6 °F 1011.1 in West 7.4 mph 7.4 mph 57 % 0.0 in 0.0 W/m2 CLR
05:42 -2.2 °F -9.4 °F 1011.4 in WNW 5.6 mph 5.6 mph 58 % 0.0 in 0.0 W/m2 CLR
05:47 -2.8 °F -9.9 °F 1011.4 in West 5.6 mph 5.6 mph 58 % 0.0 in 0.0 W/m2 CLR
05:52 -2.8 °F -9.7 °F 1011.4 in WSW 8.0 mph 8.0 mph 59 % 0.0 in 0.0 W/m2 CLR
05:57 -3.3 °F -9.8 °F 1011.1 in West 11.3 mph 11.3 mph 61 % 0.0 in 0.0 W/m2 CLR
06:02 -3.3 °F -10.0 °F 1011.1 in WNW 13.0 mph 13.0 mph 60 % 0.0 in 0.0 W/m2 CLR
06:07 -2.8 °F -9.7 °F 1011.1 in WNW 13.0 mph 13.0 mph 59 % 0.0 in 0.0 W/m2 CLR
06:12 -2.2 °F -9.4 °F 1011.1 in West 9.7 mph 9.7 mph 58 % 0.0 in 0.0 W/m2 CLR
06:17 -2.2 °F -9.4 °F 1011.4 in West 5.6 mph 5.6 mph 58 % 0.0 in 0.0 W/m2 CLR
06:22 -2.2 °F -9.4 °F 1011.4 in West 7.4 mph 7.4 mph 58 % 0.0 in 0.0 W/m2 CLR
06:27 -2.2 °F -9.6 °F 1011.4 in WNW 9.3 mph 9.3 mph 57 % 0.0 in 0.0 W/m2 CLR
06:32 -2.2 °F -9.6 °F 1011.1 in West 14.8 mph 14.8 mph 57 % 0.0 in 0.0 W/m2 CLR
06:37 -2.2 °F -9.8 °F 1011.4 in West 9.3 mph 9.3 mph 56 % 0.0 in 0.0 W/m2 CLR
06:42 -1.7 °F -9.1 °F 1011.4 in WSW 5.6 mph 5.6 mph 57 % 0.0 in 0.0 W/m2 CLR
06:47 -2.2 °F -9.8 °F 1011.4 in WSW 6.4 mph 6.4 mph 56 % 0.0 in 0.0 W/m2 CLR
06:52 -2.2 °F -9.8 °F 1011.4 in NNW 6.4 mph 6.4 mph 56 % 0.0 in 0.0 W/m2 CLR
06:57 -1.7 °F -9.3 °F 1011.4 in NW 11.1 mph 11.1 mph 56 % 0.0 in 0.0 W/m2 CLR
07:02 -1.1 °F -9.3 °F 1011.4 in NW 14.8 mph 14.8 mph 54 % 0.0 in 0.0 W/m2 CLR
07:07 -0.6 °F -9.0 °F 1011.4 in NNW 13.0 mph 13.0 mph 53 % 0.0 in 0.0 W/m2 CLR
07:12 -0.6 °F -8.7 °F 1011.4 in NNW 11.3 mph 11.3 mph 54 % 0.0 in 0.0 W/m2 CLR
07:17 -0.6 °F -9.0 °F 1011.4 in WNW 7.4 mph 7.4 mph 53 % 0.0 in 0.0 W/m2 CLR
07:22 -0.6 °F -9.0 °F 1011.4 in West 13.0 mph 13.0 mph 53 % 0.0 in 0.0 W/m2 CLR
07:27 -0.6 °F -9.2 °F 1011.4 in West 18.5 mph 18.5 mph 52 % 0.0 in 0.0 W/m2 OVC
07:32 0.0 °F -8.7 °F 1011.4 in West 16.7 mph 16.7 mph 52 % 0.0 in 0.0 W/m2 OVC
07:37 0.0 °F -8.7 °F 1011.4 in WNW 16.7 mph 16.7 mph 52 % 0.0 in 0.0 W/m2 OVC
07:42 0.0 °F -8.7 °F 1011.4 in NW 14.5 mph 14.5 mph 52 % 0.0 in 0.0 W/m2 OVC
07:47 0.0 °F -8.7 °F 1011.4 in WNW 9.3 mph 9.3 mph 52 % 0.0 in 0.0 W/m2 OVC
07:52 0.0 °F -8.7 °F 1011.4 in WNW 14.8 mph 14.8 mph 52 % 0.0 in 5.0 W/m2 OVC
07:57 0.0 °F -8.7 °F 1011.4 in WNW 11.1 mph 11.1 mph 52 % 0.0 in 9.0 W/m2 BKN
08:02 0.0 °F -8.7 °F 1011.4 in West 14.5 mph 14.5 mph 52 % 0.0 in 12.0 W/m2 BKN
08:07 0.0 °F -8.4 °F 1011.4 in West 14.8 mph 14.8 mph 53 % 0.0 in 16.0 W/m2 BKN
08:12 0.0 °F -8.2 °F 1011.4 in West 11.1 mph 11.1 mph 54 % 0.0 in 26.0 W/m2 BKN
08:17 0.0 °F -8.2 °F 1011.7 in West 11.1 mph 11.1 mph 54 % 0.0 in 26.0 W/m2 BKN
08:22 0.0 °F -8.4 °F 1011.7 in West 6.4 mph 6.4 mph 53 % 0.0 in 44.0 W/m2 BKN
08:27 0.6 °F -7.7 °F 1011.7 in WNW 8.0 mph 8.0 mph 54 % 0.0 in 53.0 W/m2 SCT
08:32 0.6 °F -7.9 °F 1011.4 in NW 13.0 mph 13.0 mph 53 % 0.0 in 39.0 W/m2 BKN
08:37 0.6 °F -7.9 °F 1011.7 in WNW 11.1 mph 11.1 mph 53 % 0.0 in 54.0 W/m2 SCT
08:42 0.6 °F -7.9 °F 1011.7 in WNW 5.6 mph 5.6 mph 53 % 0.0 in 67.0 W/m2 SCT
08:47 0.6 °F -7.7 °F 1011.7 in Calm     54 % 0.0 in 40.0 W/m2 SCT
08:52 0.6 °F -7.7 °F 1011.4 in Calm     54 % 0.0 in 67.0 W/m2 SCT
08:57 0.6 °F -7.9 °F 1011.4 in WNW 13.0 mph 13.0 mph 53 % 0.0 in 60.0 W/m2 SCT
09:02 1.1 °F -7.4 °F 1011.4 in NW 14.5 mph 14.5 mph 53 % 0.0 in 74.0 W/m2 SCT
09:07 1.1 °F -7.7 °F 1011.4 in NW 14.8 mph 14.8 mph 52 % 0.0 in 79.0 W/m2 FEW
09:12 1.1 °F -7.7 °F 1011.4 in NW 16.7 mph 16.7 mph 52 % 0.0 in 90.0 W/m2 FEW
09:17 1.1 °F -7.4 °F 1011.4 in NW 16.7 mph 16.7 mph 53 % 0.0 in 111.0 W/m2 FEW
09:22 1.1 °F -7.4 °F 1011.4 in WNW 11.1 mph 11.1 mph 53 % 0.0 in 83.0 W/m2 CLR
09:27 1.1 °F -7.4 °F 1011.1 in NNW 11.1 mph 11.1 mph 53 % 0.0 in 86.0 W/m2 CLR
09:32 1.1 °F -7.4 °F 1011.1 in NW 14.8 mph 14.8 mph 53 % 0.0 in 90.0 W/m2 CLR
09:37 1.1 °F -7.4 °F 1011.1 in WNW 11.1 mph 11.1 mph 53 % 0.0 in 91.0 W/m2 CLR
09:42 1.1 °F -7.4 °F 1011.1 in West 11.3 mph 11.3 mph 53 % 0.0 in 95.0 W/m2 CLR
09:47 1.1 °F -7.2 °F 1011.4 in NW 13.0 mph 13.0 mph 54 % 0.0 in 84.0 W/m2 CLR
09:52 1.1 °F -7.4 °F 1011.1 in North 5.6 mph 5.6 mph 53 % 0.0 in 74.0 W/m2 FEW
09:57 1.1 °F -7.4 °F 1011.1 in North 16.7 mph 16.7 mph 53 % 0.0 in 62.0 W/m2 FEW
10:03 1.1 °F -7.2 °F 1011.1 in NW 9.7 mph 9.7 mph 54 % 0.0 in 67.0 W/m2 SCT
10:08 1.1 °F -7.2 °F 1011.1 in NW 11.3 mph 11.3 mph 54 % 0.0 in 104.0 W/m2 FEW
10:13 1.1 °F -7.2 °F 1011.1 in NW 5.6 mph 5.6 mph 54 % 0.0 in 74.0 W/m2 FEW
10:18 1.1 °F -7.4 °F 1011.1 in NW 14.5 mph 14.5 mph 53 % 0.0 in 74.0 W/m2 FEW
10:23 1.1 °F -7.4 °F 1011.4 in WNW 11.1 mph 11.1 mph 53 % 0.0 in 76.0 W/m2 FEW
10:28 1.1 °F -7.4 °F 1011.4 in NW 5.6 mph 5.6 mph 53 % 0.0 in 65.0 W/m2 FEW
10:33 1.1 °F -7.4 °F 1011.4 in Calm     53 % 0.0 in 83.0 W/m2 FEW
10:38 1.1 °F -7.9 °F 1011.4 in NW 6.4 mph 6.4 mph 51 % 0.0 in 90.0 W/m2 FEW
10:43 1.1 °F -8.7 °F 1011.4 in NW 13.0 mph 13.0 mph 48 % 0.0 in 88.0 W/m2 CLR
10:48 1.1 °F -8.4 °F 1011.4 in NW 13.0 mph 13.0 mph 49 % 0.0 in 79.0 W/m2 CLR
10:53 1.1 °F -8.7 °F 1011.4 in NW 9.3 mph 9.3 mph 48 % 0.0 in 79.0 W/m2 FEW
10:58 1.1 °F -8.7 °F 1011.4 in NW 9.7 mph 9.7 mph 48 % 0.0 in 72.0 W/m2 FEW
11:03 1.1 °F -8.7 °F 1011.4 in WNW 7.4 mph 7.4 mph 48 % 0.0 in 81.0 W/m2 FEW
11:08 1.1 °F -8.7 °F 1011.4 in NW 5.6 mph 5.6 mph 48 % 0.0 in 91.0 W/m2 FEW
11:13 1.1 °F -8.7 °F 1011.4 in NNW 9.3 mph 9.3 mph 48 % 0.0 in 100.0 W/m2 CLR
11:18 1.1 °F -8.4 °F 1011.4 in NNW 9.3 mph 9.3 mph 49 % 0.0 in 116.0 W/m2 CLR
11:23 1.1 °F -8.4 °F 1011.1 in NNW 5.6 mph 5.6 mph 49 % 0.0 in 105.0 W/m2 CLR
11:29 1.1 °F -8.2 °F 1011.1 in NNW 9.7 mph 9.7 mph 50 % 0.0 in 105.0 W/m2 CLR
11:34 1.1 °F -8.4 °F 1011.1 in NNW 12.9 mph 12.9 mph 49 % 0.0 in 95.0 W/m2 CLR
11:39 1.1 °F -8.2 °F 1011.1 in North 11.1 mph 11.1 mph 50 % 0.0 in 90.0 W/m2 CLR
11:44 1.1 °F -8.2 °F 1011.1 in NW 5.6 mph 5.6 mph 50 % 0.0 in 84.0 W/m2 CLR
11:49 1.1 °F -8.7 °F 1011.4 in North 7.4 mph 7.4 mph 48 % 0.0 in 79.0 W/m2 FEW
11:54 1.1 °F -8.9 °F 1011.4 in NNW 14.8 mph 14.8 mph 47 % 0.0 in 81.0 W/m2 FEW
11:59 1.1 °F -9.2 °F 1011.4 in North 13.0 mph 13.0 mph 46 % 0.0 in 77.0 W/m2 FEW
12:04 1.1 °F -9.2 °F 1011.4 in North 11.1 mph 11.1 mph 46 % 0.0 in 79.0 W/m2 FEW
12:09 1.1 °F -9.5 °F 1011.4 in NNW 13.0 mph 13.0 mph 45 % 0.0 in 76.0 W/m2 FEW
12:14 1.1 °F -9.5 °F 1011.4 in NNW 13.0 mph 13.0 mph 45 % 0.0 in 70.0 W/m2 FEW
12:19 1.1 °F -9.5 °F 1011.4 in NNW 11.1 mph 11.1 mph 45 % 0.0 in 74.0 W/m2 FEW
12:24 1.1 °F -9.5 °F 1011.4 in NNW 6.4 mph 6.4 mph 45 % 0.0 in 81.0 W/m2 FEW
12:29 1.1 °F -9.5 °F 1011.4 in Calm     45 % 0.0 in 79.0 W/m2 FEW
12:35 1.1 °F -9.5 °F 1011.4 in North 13.0 mph 13.0 mph 45 % 0.0 in 79.0 W/m2 FEW
12:40 1.1 °F -9.2 °F 1011.4 in NW 7.4 mph 7.4 mph 46 % 0.0 in 83.0 W/m2 FEW
12:45 1.1 °F -9.2 °F 1011.4 in North 8.0 mph 8.0 mph 46 % 0.0 in 81.0 W/m2 FEW
12:50 1.1 °F -9.2 °F 1011.7 in North 7.4 mph 7.4 mph 46 % 0.0 in 79.0 W/m2 FEW
12:55 1.1 °F -9.5 °F 1011.4 in Calm     45 % 0.0 in 86.0 W/m2 FEW
13:00 1.1 °F -8.9 °F 1011.4 in NNW 7.4 mph 7.4 mph 47 % 0.0 in 98.0 W/m2 CLR
13:05 1.1 °F -9.2 °F 1011.4 in Calm     46 % 0.0 in 81.0 W/m2 CLR
13:10 1.1 °F -9.2 °F 1011.4 in NNW 9.3 mph 9.3 mph 46 % 0.0 in 72.0 W/m2 CLR
13:15 1.1 °F -9.8 °F 1011.4 in NW 7.4 mph 7.4 mph 44 % 0.0 in 70.0 W/m2 FEW
13:20 1.1 °F -9.5 °F 1011.4 in Calm     45 % 0.0 in 69.0 W/m2 FEW
13:25 1.1 °F -9.5 °F 1011.4 in Calm     45 % 0.0 in 63.0 W/m2 FEW
13:30 1.1 °F -9.8 °F 1011.1 in Calm     44 % 0.0 in 72.0 W/m2 FEW
13:35 1.1 °F -9.5 °F 1011.1 in Calm     45 % 0.0 in 81.0 W/m2 FEW
13:40 1.1 °F -9.8 °F 1011.1 in Calm     44 % 0.0 in 79.0 W/m2 FEW
13:45 1.1 °F -9.8 °F 1011.1 in Calm     44 % 0.0 in 79.0 W/m2 FEW
13:50 1.1 °F -9.8 °F 1011.1 in Calm     44 % 0.0 in 88.0 W/m2 FEW
13:55 1.1 °F -9.8 °F 1011.1 in Calm     44 % 0.0 in 79.0 W/m2 FEW
14:00 1.1 °F -10.1 °F 1011.1 in Calm     43 % 0.0 in 86.0 W/m2 FEW
14:05 1.1 °F -10.1 °F 1010.7 in Calm     43 % 0.0 in 91.0 W/m2 CLR
14:10 1.1 °F -10.1 °F 1010.7 in Calm     43 % 0.0 in 100.0 W/m2 CLR
14:15 1.1 °F -10.1 °F 1010.7 in Calm     43 % 0.0 in 100.0 W/m2 CLR
14:20 1.1 °F -10.4 °F 1010.7 in Calm     42 % 0.0 in 100.0 W/m2 CLR
14:25 1.7 °F -9.9 °F 1010.7 in Calm     42 % 0.0 in 105.0 W/m2 CLR
14:30 1.7 °F -9.9 °F 1010.4 in Calm     42 % 0.0 in 100.0 W/m2 CLR
14:35 1.7 °F -9.9 °F 1010.4 in Calm     42 % 0.0 in 91.0 W/m2 CLR
14:40 1.7 °F -9.9 °F 1010.4 in Calm     42 % 0.0 in 102.0 W/m2 CLR
14:45 1.7 °F -9.9 °F 1010.4 in Calm     42 % 0.0 in 102.0 W/m2 CLR
14:50 1.7 °F -9.9 °F 1010.7 in Calm     42 % 0.0 in 95.0 W/m2 CLR
14:55 1.7 °F -9.9 °F 1010.4 in Calm     42 % 0.0 in 93.0 W/m2 CLR
14:57 1.7 °F -9.9 °F 1010.4 in Calm     42 % 0.0 in 93.0 W/m2 CLR
15:02 1.7 °F -9.9 °F 1010.4 in Calm     42 % 0.0 in 86.0 W/m2 CLR
15:07 1.7 °F -9.9 °F 1010.7 in Calm     42 % 0.0 in 95.0 W/m2 CLR
15:12 1.7 °F -9.9 °F 1010.4 in Calm     42 % 0.0 in 100.0 W/m2 CLR
15:17 1.7 °F -9.9 °F 1010.4 in Calm     42 % 0.0 in 90.0 W/m2 CLR
15:22 1.7 °F -9.6 °F 1010.4 in Calm     43 % 0.0 in 72.0 W/m2 CLR
15:27 1.7 °F -9.9 °F 1010.4 in Calm     42 % 0.0 in 72.0 W/m2 FEW
15:32 1.7 °F -9.9 °F 1010.4 in Calm     42 % 0.0 in 69.0 W/m2 FEW
15:37 1.7 °F -9.6 °F 1010.4 in Calm     43 % 0.0 in 65.0 W/m2 FEW
15:42 1.7 °F -9.6 °F 1010.4 in Calm     43 % 0.0 in 90.0 W/m2 FEW
15:47 1.7 °F -9.6 °F 1010.4 in Calm     43 % 0.0 in 113.0 W/m2 CLR
15:52 1.7 °F -9.6 °F 1010.0 in Calm     43 % 0.0 in 141.0 W/m2 CLR
15:57 1.7 °F -9.9 °F 1010.4 in Calm     42 % 0.0 in 95.0 W/m2 CLR
16:02 1.7 °F -9.6 °F 1010.0 in Calm     43 % 0.0 in 116.0 W/m2 CLR
16:07 1.7 °F -9.6 °F 1010.0 in Calm     43 % 0.0 in 100.0 W/m2 CLR
16:12 1.7 °F -9.6 °F 1010.0 in Calm     43 % 0.0 in 79.0 W/m2 CLR
16:17 1.7 °F -9.6 °F 1010.0 in Calm     43 % 0.0 in 100.0 W/m2 CLR
16:22 1.7 °F -9.3 °F 1010.0 in Calm     44 % 0.0 in 111.0 W/m2 CLR
16:27 1.7 °F -9.3 °F 1010.0 in Calm     44 % 0.0 in 130.0 W/m2 CLR
16:32 1.7 °F -9.3 °F 1010.0 in Calm     44 % 0.0 in 84.0 W/m2 CLR
16:37 1.7 °F -9.3 °F 1010.0 in Calm     44 % 0.0 in 120.0 W/m2 CLR
16:42 1.7 °F -9.6 °F 1010.0 in Calm     43 % 0.0 in 84.0 W/m2 CLR
16:47 1.7 °F -9.6 °F 1010.0 in Calm     43 % 0.0 in 74.0 W/m2 FEW
16:52 1.7 °F -9.6 °F 1010.0 in Calm     43 % 0.0 in 63.0 W/m2 FEW
16:57 1.7 °F -9.3 °F 1010.0 in Calm     44 % 0.0 in 60.0 W/m2 FEW
17:02 1.7 °F -9.3 °F 1010.0 in Calm     44 % 0.0 in 62.0 W/m2 SCT
17:07 2.1 °F -8.7 °F 1009.7 in Calm     45 % 0.0 in 58.0 W/m2 SCT
17:12 2.1 °F -8.4 °F 1010.0 in Calm     46 % 0.0 in 44.0 W/m2 SCT
17:17 2.1 °F -8.4 °F 1010.0 in Calm     46 % 0.0 in 33.0 W/m2 SCT
17:22 2.0 °F -8.4 °F 1010.0 in Calm     46 % 0.0 in 30.0 W/m2 BKN
17:32 1.9 °F -7.9 °F 1010.0 in Calm     48 % 0.0 in 37.0 W/m2 BKN
17:37 1.9 °F -7.9 °F 1010.0 in Calm     48 % 0.0 in 32.0 W/m2 BKN
17:42 1.9 °F -7.7 °F 1010.0 in Calm     49 % 0.0 in 25.0 W/m2 BKN
17:47 1.9 °F -7.4 °F 1010.0 in Calm     50 % 0.0 in 19.0 W/m2 BKN
17:52 1.9 °F -7.2 °F 1010.0 in Calm     51 % 0.0 in 18.0 W/m2 BKN
17:57 1.9 °F -6.7 °F 1010.0 in Calm     53 % 0.0 in 12.0 W/m2 BKN
18:02 1.9 °F -6.4 °F 1010.0 in Calm     54 % 0.0 in 9.0 W/m2 BKN
18:07 1.9 °F -6.4 °F 1010.4 in Calm     54 % 0.0 in 5.0 W/m2 OVC
18:12 1.9 °F -6.9 °F 1010.4 in Calm     52 % 0.0 in 5.0 W/m2 OVC
18:17 1.8 °F -7.0 °F 1010.4 in Calm     52 % 0.0 in 7.0 W/m2 BKN
18:22 1.8 °F -6.8 °F 1010.0 in Calm     53 % 0.0 in 7.0 W/m2 BKN
18:27 1.7 °F -6.8 °F 1010.4 in Calm     53 % 0.0 in 5.0 W/m2 BKN
18:32 1.7 °F -7.1 °F 1010.4 in Calm     52 % 0.0 in 0.0 W/m2 OVC
18:37 1.7 °F -7.2 °F 1010.7 in Calm     52 % 0.0 in 0.0 W/m2 OVC
18:42 1.7 °F -7.2 °F 1010.7 in Calm     52 % 0.0 in 0.0 W/m2 OVC
18:47 1.6 °F -7.2 °F 1010.7 in Calm     52 % 0.0 in 0.0 W/m2 OVC
18:52 1.6 °F -6.4 °F 1010.7 in Calm     55 % 0.0 in 0.0 W/m2 OVC
18:57 1.6 °F -5.6 °F 1010.4 in Calm     59 % 0.0 in 0.0 W/m2 OVC
19:02 1.4 °F -4.3 °F 1010.7 in ESE 7.4 mph 7.4 mph 66 % 0.0 in 0.0 W/m2 CLR
19:07 1.2 °F -3.8 °F 1010.4 in ESE 7.4 mph 7.4 mph 69 % 0.0 in 0.0 W/m2 CLR
19:12 1.2 °F -3.5 °F 1010.7 in ESE 5.6 mph 5.6 mph 71 % 0.0 in 0.0 W/m2 CLR
19:17 1.1 °F -3.4 °F 1010.7 in ENE 9.7 mph 9.7 mph 72 % 0.0 in 0.0 W/m2 CLR
19:22 0.9 °F -3.2 °F 1011.1 in ENE 13.0 mph 13.0 mph 74 % 0.0 in 0.0 W/m2 CLR
19:27 0.8 °F -2.9 °F 1011.1 in ENE 16.7 mph 16.7 mph 76 % 0.0 in 0.0 W/m2 CLR
19:32 0.7 °F -2.7 °F 1011.4 in ENE 13.0 mph 13.0 mph 78 % 0.0 in 0.0 W/m2 CLR
19:37 0.6 °F -2.7 °F 1011.1 in ENE 13.0 mph 13.0 mph 79 % 0.0 in 0.0 W/m2 CLR
19:42 0.4 °F -2.6 °F 1010.7 in ENE 13.0 mph 13.0 mph 80 % 0.0 in 0.0 W/m2 CLR
19:47 0.3 °F -2.6 °F 1011.1 in ENE 7.4 mph 7.4 mph 81 % 0.0 in 0.0 W/m2 CLR
19:52 0.2 °F -2.5 °F 1011.1 in ENE 9.7 mph 9.7 mph 82 % 0.0 in 0.0 W/m2 CLR
19:57 0.2 °F -2.6 °F 1011.4 in ENE 14.8 mph 14.8 mph 82 % 0.0 in 0.0 W/m2 CLR
20:02 0.1 °F -2.4 °F 1011.4 in ENE 9.3 mph 9.5 mph 83 % 0.0 in 0.0 W/m2 CLR
20:07 0.1 °F -2.4 °F 1011.4 in East 7.4 mph 7.4 mph 83 % 0.0 in 0.0 W/m2 CLR
20:08 0.1 °F -2.5 °F 1011.4 in East 7.4 mph 7.4 mph 83 % 0.0 in 0.0 W/m2 CLR
20:13 0.1 °F -2.5 °F 1011.4 in East 7.4 mph 7.4 mph 83 % 0.0 in 0.0 W/m2 CLR
20:18 0.0 °F -2.4 °F 1011.4 in ENE 5.6 mph 5.6 mph 84 % 0.0 in 0.0 W/m2 CLR
20:23 0.0 °F -2.4 °F 1011.4 in ENE 8.0 mph 8.0 mph 84 % 0.0 in 0.0 W/m2 CLR
20:28 0.0 °F -2.4 °F 1011.4 in East 5.6 mph 5.6 mph 84 % 0.0 in 0.0 W/m2 CLR
20:33 0.0 °F -2.4 °F 1011.4 in Calm     84 % 0.0 in 0.0 W/m2 CLR
20:38 -0.1 °F -2.4 °F 1011.4 in Calm     84 % 0.0 in 0.0 W/m2 CLR
20:43 -0.1 °F -2.3 °F 1011.4 in Calm     85 % 0.0 in 0.0 W/m2 CLR
20:48 -0.1 °F -2.3 °F 1011.4 in Calm     85 % 0.0 in 0.0 W/m2 CLR
20:53 -0.1 °F -2.3 °F 1011.1 in Calm     85 % 0.0 in 0.0 W/m2 CLR
20:58 -0.1 °F -2.3 °F 1011.1 in Calm     85 % 0.0 in 0.0 W/m2 CLR
21:03 -0.2 °F -2.4 °F 1011.1 in Calm     85 % 0.0 in 0.0 W/m2 CLR
21:08 -0.2 °F -2.4 °F 1011.1 in Calm     85 % 0.0 in 0.0 W/m2 CLR
21:13 -0.2 °F -2.4 °F 1011.1 in Calm     85 % 0.0 in 0.0 W/m2 CLR
21:18 -0.1 °F -2.2 °F 1011.1 in Calm     86 % 0.0 in 0.0 W/m2 CLR
21:23 -0.1 °F -2.2 °F 1010.7 in Calm     86 % 0.0 in 0.0 W/m2 CLR
21:28 -0.1 °F -2.1 °F 1011.1 in Calm     86 % 0.0 in 0.0 W/m2 CLR
21:33 -0.1 °F -2.1 °F 1011.1 in Calm     86 % 0.0 in 0.0 W/m2 CLR
21:38 0.0 °F -2.1 °F 1011.4 in Calm     86 % 0.0 in 0.0 W/m2 CLR
21:43 0.1 °F -2.0 °F 1011.4 in Calm     86 % 0.0 in 0.0 W/m2 CLR
21:48 0.1 °F -2.0 °F 1011.4 in Calm     86 % 0.0 in 0.0 W/m2 CLR
21:53 0.1 °F -2.0 °F 1011.4 in Calm     86 % 0.0 in 0.0 W/m2 CLR
21:58 0.1 °F -2.0 °F 1011.4 in Calm     86 % 0.0 in 0.0 W/m2 CLR
22:03 0.1 °F -2.0 °F 1011.4 in Calm     86 % 0.0 in 0.0 W/m2 CLR
22:08 0.1 °F -1.9 °F 1011.1 in Calm     86 % 0.0 in 0.0 W/m2 CLR
22:13 0.1 °F -1.9 °F 1011.1 in Calm     86 % 0.0 in 0.0 W/m2 CLR
22:18 0.2 °F -1.9 °F 1011.1 in Calm     86 % 0.0 in 0.0 W/m2 CLR
22:23 0.2 °F -1.8 °F 1011.1 in Calm     86 % 0.0 in 0.0 W/m2 CLR
22:28 0.2 °F -1.8 °F 1011.1 in Calm     86 % 0.0 in 0.0 W/m2 CLR
22:33 0.2 °F -1.8 °F 1011.1 in Calm     86 % 0.0 in 0.0 W/m2 CLR
22:38 0.2 °F -1.8 °F 1011.1 in Calm     86 % 0.0 in 0.0 W/m2 CLR
22:43 0.3 °F -1.8 °F 1011.1 in Calm     86 % 0.0 in 0.0 W/m2 CLR
22:48 0.3 °F -1.8 °F 1011.1 in Calm     86 % 0.0 in 0.0 W/m2 CLR
22:53 0.3 °F -1.7 °F 1011.1 in Calm     86 % 0.0 in 0.0 W/m2 CLR
22:58 0.4 °F -1.7 °F 1011.1 in Calm     86 % 0.0 in 0.0 W/m2 CLR
23:03 0.4 °F -1.6 °F 1011.1 in Calm     86 % 0.0 in 0.0 W/m2 CLR
23:08 0.4 °F -1.6 °F 1011.1 in Calm     86 % 0.0 in 0.0 W/m2 CLR
23:13 0.4 °F -1.6 °F 1010.7 in Calm     86 % 0.0 in 0.0 W/m2 CLR
23:18 0.5 °F -1.6 °F 1010.7 in Calm     86 % 0.0 in 0.0 W/m2 CLR
23:23 0.5 °F -1.6 °F 1010.7 in Calm     86 % 0.0 in 0.0 W/m2 CLR
23:28 0.5 °F -1.6 °F 1010.7 in Calm     86 % 0.0 in 0.0 W/m2 CLR
23:33 0.6 °F -1.5 °F 1010.7 in Calm     86 % 0.0 in 0.0 W/m2 CLR
23:38 0.6 °F -1.4 °F 1010.7 in Calm     86 % 0.0 in 0.0 W/m2 CLR
23:43 0.6 °F -1.4 °F 1010.7 in Calm     86 % 0.0 in 0.0 W/m2 CLR
23:48 0.7 °F -1.4 °F 1010.4 in Calm     86 % 0.0 in 0.0 W/m2 CLR
23:53 0.6 °F -1.4 °F 1010.4 in Calm     86 % 0.0 in 0.0 W/m2 CLR
23:58 0.6 °F -1.4 °F 1010.0 in Calm     86 % 0.0 in 0.0 W/m2 CLR
Lo Temps de Massalio
Compliments of Weather Underground - 1.25 mb